Los Angeles, California
Traffic Map
Current Weather Conditions
Los Angeles, California
Clear
Clear
27°
Feels Like: 27°
Wind Chill: 27° Ceiling: Unl
Heat Index: 27° Visibility: 10mi
Dew Point: Wind: 0mph
Humidity: 27% Direction: ° ()
Pressure: 29.88in Gusts: 0mph
Raw Report DataKCQT 282247Z AUTO 00000KT 10SM CLR 27/06 A2988 RMK AO2 SLP115 T02670061
Traffic Incident Summary
Active as of:
Severity:
Category:
InformationThere was an issue retrieving the traffic information for this location. Please try a different location or try again shortly.
Advertisements
Track Severe Weather on mobile